Time;durP1;ratioP1;P1;durP2;ratioP2;P2;SDS_P1;SDS_P2;PMS_P1;PMS_P2;Temp;Humidity;BMP_temperature;BMP_pressure;BME280_temperature;BME280_humidity;BME280_pressure;Samples;Min_cycle;Max_cycle;Signal;HPM_P1;HPM_P2
2021/09/03 00:02:25;;;;;;;16.93;12.67;;;;;;;14.30;75.16;101036.25;5040687;28;20057;-82
2021/09/03 00:04:52;;;;;;;15.82;11.77;;;;;;;14.30;74.71;101035.41;5039652;28;20053;-83
2021/09/03 00:07:20;;;;;;;18.33;13.68;;;;;;;14.27;75.23;101031.28;5039388;28;20064;-83
2021/09/03 00:09:47;;;;;;;16.42;12.13;;;;;;;14.26;74.97;101029.66;5021534;28;20126;-83
2021/09/03 00:12:15;;;;;;;17.30;13.27;;;;;;;14.20;75.21;101031.75;5019811;28;20058;-83
2021/09/03 00:14:42;;;;;;;20.75;13.27;;;;;;;14.26;75.12;101034.41;5020732;28;20061;-83
2021/09/03 00:17:11;;;;;;;15.38;13.13;;;;;;;14.24;75.29;101028.31;5020893;28;20054;-83
2021/09/03 00:19:39;;;;;;;16.73;12.77;;;;;;;14.14;75.05;101027.47;5019971;28;20054;-82
2021/09/03 00:22:06;;;;;;;17.50;12.82;;;;;;;14.17;74.79;101029.63;5021440;28;20065;-83
2021/09/03 00:24:33;;;;;;;17.42;13.27;;;;;;;14.17;74.91;101023.19;5042319;28;20049;-83
2021/09/03 00:27:01;;;;;;;15.30;11.55;;;;;;;14.17;74.90;101026.84;5042857;28;20800;-83
2021/09/03 00:29:28;;;;;;;13.70;11.45;;;;;;;14.15;74.95;101026.31;5043818;28;20049;-83
2021/09/03 00:31:56;;;;;;;15.45;12.30;;;;;;;14.12;74.79;101017.75;5043511;28;20053;-83
2021/09/03 00:34:24;;;;;;;14.27;11.27;;;;;;;14.09;74.65;101018.38;5027723;28;20499;-83
2021/09/03 00:36:52;;;;;;;19.60;11.82;;;;;;;14.00;75.32;101009.94;5024389;28;20057;-83
2021/09/03 00:39:19;;;;;;;16.30;11.90;;;;;;;14.00;74.71;101015.53;5022906;28;20050;-82
2021/09/03 00:41:49;;;;;;;17.50;11.52;;;;;;;13.98;75.29;101013.09;5038347;28;20053;-82
2021/09/03 00:44:17;;;;;;;15.15;11.52;;;;;;;13.98;74.74;101020.66;5043964;28;20037;-83
2021/09/03 00:46:44;;;;;;;17.00;12.27;;;;;;;13.98;74.68;101023.44;5043559;28;20049;-81
2021/09/03 00:49:12;;;;;;;17.15;12.07;;;;;;;13.97;74.81;101017.03;5043735;28;20045;-81
2021/09/03 00:51:41;;;;;;;14.52;11.93;;;;;;;13.96;74.64;101017.34;5027701;28;20054;-83
2021/09/03 00:54:08;;;;;;;15.15;12.23;;;;;;;13.93;74.57;101016.03;5021861;28;20078;-82
2021/09/03 00:56:36;;;;;;;15.23;11.38;;;;;;;13.88;74.71;101024.59;5033317;28;20064;-83
2021/09/03 00:59:03;;;;;;;16.73;12.13;;;;;;;13.86;75.07;101015.69;5043143;28;20056;-82
2021/09/03 01:01:31;;;;;;;15.02;11.95;;;;;;;13.87;74.78;101014.50;5046492;28;20049;-82
2021/09/03 01:03:58;;;;;;;19.95;12.45;;;;;;;13.87;74.88;101002.50;5048897;28;20075;-83
2021/09/03 01:06:26;;;;;;;18.15;12.38;;;;;;;13.86;74.92;101010.09;5048930;28;20061;-83
2021/09/03 01:08:55;;;;;;;17.55;12.25;;;;;;;13.84;75.00;101009.56;5049419;28;20063;-83
2021/09/03 01:11:23;;;;;;;16.35;12.23;;;;;;;13.85;75.23;101002.00;5048774;28;20049;-82
2021/09/03 01:13:51;;;;;;;14.38;11.48;;;;;;;13.85;74.79;101007.59;5049605;28;20053;-81
2021/09/03 01:16:18;;;;;;;13.30;10.48;;;;;;;13.84;74.84;101014.34;5048362;28;20049;-83
2021/09/03 01:18:46;;;;;;;14.02;11.60;;;;;;;13.78;74.70;101008.88;5047643;28;20072;-83
2021/09/03 01:21:13;;;;;;;19.73;12.20;;;;;;;13.76;74.92;101001.97;5047676;28;20061;-83
2021/09/03 01:23:42;;;;;;;14.90;11.30;;;;;;;13.75;74.22;101005.91;5045546;28;20054;-82
2021/09/03 01:26:10;;;;;;;14.57;11.38;;;;;;;13.74;74.32;101002.28;5028073;28;20057;-82
2021/09/03 01:28:38;;;;;;;16.45;11.38;;;;;;;13.67;74.65;101012.28;5029502;28;20053;-81
2021/09/03 01:31:06;;;;;;;13.95;11.10;;;;;;;13.69;74.67;101001.59;5029392;28;20064;-83
2021/09/03 01:33:33;;;;;;;17.05;11.93;;;;;;;13.65;74.68;101000.56;5027181;28;20060;-83
2021/09/03 01:36:01;;;;;;;20.30;13.48;;;;;;;13.56;74.67;101001.34;5027888;28;20060;-83
2021/09/03 01:38:28;;;;;;;17.35;11.90;;;;;;;13.57;74.73;100991.84;5027461;28;20049;-81
2021/09/03 01:40:58;;;;;;;16.58;11.63;;;;;;;13.59;75.37;101008.31;5028783;28;20054;-83
2021/09/03 01:43:25;;;;;;;18.38;12.63;;;;;;;13.56;75.18;100997.75;5027066;28;20056;-83
2021/09/03 01:45:52;;;;;;;18.42;12.35;;;;;;;13.53;75.27;100990.00;5028606;28;20058;-82
2021/09/03 01:48:20;;;;;;;15.93;12.43;;;;;;;13.52;74.96;100991.13;5028113;28;20057;-81
2021/09/03 01:50:48;;;;;;;15.52;11.65;;;;;;;13.49;74.70;100989.00;5027915;28;20050;-83
2021/09/03 01:53:15;;;;;;;18.02;12.18;;;;;;;13.51;74.79;100984.72;5031572;28;20060;-83
2021/09/03 01:55:42;;;;;;;17.08;11.95;;;;;;;13.51;75.07;100981.91;5047503;28;20060;-82
2021/09/03 01:58:11;;;;;;;14.95;11.20;;;;;;;13.52;75.11;100988.34;5047674;28;20504;-83
2021/09/03 02:00:38;;;;;;;16.50;12.43;;;;;;;13.54;74.86;100977.66;5048191;28;20053;-83
2021/09/03 02:03:09;;;;;;;13.10;10.95;;;;;;;13.54;75.21;100980.44;5048867;28;20272;-82
2021/09/03 02:05:36;;;;;;;16.25;11.73;;;;;;;13.56;74.83;100973.38;5048840;28;20362;-81
2021/09/03 02:08:05;;;;;;;14.70;11.25;;;;;;;13.58;75.10;100978.66;5047782;28;20076;-83
2021/09/03 02:10:33;;;;;;;13.88;11.10;;;;;;;13.60;74.98;100973.56;5043423;28;20057;-82
2021/09/03 02:13:00;;;;;;;15.98;11.40;;;;;;;13.57;74.90;100972.25;5040815;28;20053;-83
2021/09/03 02:15:29;;;;;;;18.73;11.93;;;;;;;13.56;74.59;100970.56;5042032;28;20053;-82
2021/09/03 02:17:56;;;;;;;17.90;12.17;;;;;;;13.57;75.24;100974.22;5041982;28;20049;-82
2021/09/03 02:20:24;;;;;;;18.00;12.10;;;;;;;13.56;74.75;100972.56;5041765;28;20057;-82
2021/09/03 02:22:51;;;;;;;13.55;11.07;;;;;;;13.56;74.74;100972.56;5042188;28;20058;-83
2021/09/03 02:25:18;;;;;;;12.93;10.88;;;;;;;13.51;75.00;100969.91;5039502;28;20491;-82
2021/09/03 02:27:46;;;;;;;15.07;10.68;;;;;;;13.56;74.76;100967.78;5036182;28;20046;-83
2021/09/03 02:30:14;;;;;;;15.32;11.10;;;;;;;13.53;74.99;100962.00;5019351;28;20509;-82
2021/09/03 02:32:42;;;;;;;18.85;12.52;;;;;;;13.50;75.17;100966.28;5022456;28;20046;-82
2021/09/03 02:35:10;;;;;;;20.50;12.23;;;;;;;13.51;75.10;100958.72;5021724;28;20045;-82
2021/09/03 02:37:38;;;;;;;26.25;14.80;;;;;;;13.55;74.96;100957.75;5020950;28;20479;-82
2021/09/03 02:40:07;;;;;;;21.00;13.18;;;;;;;13.50;76.11;100965.44;5001287;28;20061;-83
2021/09/03 02:42:35;;;;;;;27.83;13.27;;;;;;;13.53;75.69;100959.22;5002351;28;20051;-83
2021/09/03 02:45:02;;;;;;;35.03;14.88;;;;;;;13.52;75.95;100960.34;5001043;28;20050;-82
2021/09/03 02:47:30;;;;;;;29.33;15.88;;;;;;;13.59;75.29;100957.94;5001959;28;20054;-82
2021/09/03 02:49:59;;;;;;;27.00;13.80;;;;;;;13.60;75.49;100956.75;5003294;28;20379;-83
2021/09/03 02:52:26;;;;;;;31.40;14.80;;;;;;;13.56;75.76;100952.97;5022058;28;20057;-83
2021/09/03 02:54:56;;;;;;;26.35;14.63;;;;;;;13.57;75.51;100947.03;5020867;28;20504;-83
2021/09/03 02:57:24;;;;;;;27.75;15.75;;;;;;;13.56;75.56;100947.38;5021427;28;20057;-83
2021/09/03 02:59:52;;;;;;;33.45;15.40;;;;;;;13.60;75.82;100956.75;5020826;28;20058;-82
2021/09/03 03:02:19;;;;;;;37.53;16.02;;;;;;;13.63;75.89;100944.94;5021551;28;20048;-83
2021/09/03 03:04:47;;;;;;;36.33;17.17;;;;;;;13.64;75.76;100940.16;5022282;28;20065;-82
2021/09/03 03:07:17;;;;;;;37.42;16.90;;;;;;;13.66;75.94;100933.06;5021496;28;20053;-82
2021/09/03 03:09:44;;;;;;;51.17;17.75;;;;;;;13.66;75.49;100935.88;5021172;28;20045;-83
2021/09/03 03:12:12;;;;;;;48.50;19.38;;;;;;;13.65;75.81;100930.59;5020663;28;20087;-83
2021/09/03 03:14:39;;;;;;;50.65;19.95;;;;;;;13.61;75.77;100941.63;5020699;28;20057;-82
2021/09/03 03:17:06;;;;;;;38.72;19.02;;;;;;;13.56;75.96;100936.16;5004116;28;20050;-82
2021/09/03 03:19:34;;;;;;;40.10;18.35;;;;;;;13.56;76.18;100928.59;5000756;28;20054;-83
2021/09/03 03:22:01;;;;;;;41.10;18.42;;;;;;;13.58;76.26;100931.06;5003081;28;20054;-82
2021/09/03 03:24:30;;;;;;;34.97;17.42;;;;;;;13.58;75.97;100929.09;5027918;28;20058;-82
2021/09/03 03:26:57;;;;;;;38.13;18.40;;;;;;;13.56;75.74;100924.97;5021634;28;20054;-82
2021/09/03 03:29:25;;;;;;;37.65;18.00;;;;;;;13.56;76.18;100923.00;5021508;28;20049;-83
2021/09/03 03:31:53;;;;;;;68.40;20.45;;;;;;;13.56;76.57;100916.56;5021337;28;20054;-83
2021/09/03 03:34:20;;;;;;;38.10;19.08;;;;;;;13.54;76.87;100919.72;5020603;28;20054;-83
2021/09/03 03:36:48;;;;;;;45.10;19.83;;;;;;;13.56;76.83;100922.16;5020735;28;20053;-83
2021/09/03 03:39:15;;;;;;;41.90;19.45;;;;;;;13.56;77.34;100917.38;5021097;28;20498;-82
2021/09/03 03:41:44;;;;;;;49.88;20.63;;;;;;;13.58;77.44;100919.88;5020538;28;20061;-82
2021/09/03 03:44:11;;;;;;;48.25;20.83;;;;;;;13.59;77.43;100915.94;5007571;28;20051;-82
2021/09/03 03:46:38;;;;;;;55.42;21.98;;;;;;;13.60;77.24;100912.78;5002153;28;20057;-83
2021/09/03 03:49:06;;;;;;;35.38;19.70;;;;;;;13.64;77.46;100917.75;5000725;28;20061;-82
2021/09/03 03:51:33;;;;;;;42.83;19.55;;;;;;;13.65;77.42;100911.00;5000549;28;20050;-83
2021/09/03 03:54:00;;;;;;;52.08;22.17;;;;;;;13.63;76.87;100911.34;5000525;28;20058;-82
2021/09/03 03:56:28;;;;;;;50.80;20.13;;;;;;;13.65;77.00;100908.19;5002298;28;20058;-83
2021/09/03 03:58:59;;;;;;;61.55;21.55;;;;;;;13.67;77.03;100903.94;5023981;28;20520;-82
2021/09/03 04:01:26;;;;;;;73.93;23.58;;;;;;;13.69;77.14;100914.81;5023569;28;20057;-83
2021/09/03 04:03:53;;;;;;;59.15;23.25;;;;;;;13.71;77.19;100907.75;5022510;28;20053;-82
2021/09/03 04:06:21;;;;;;;46.05;20.75;;;;;;;13.63;77.83;100904.91;5025025;28;20050;-83
2021/09/03 04:08:48;;;;;;;50.95;22.55;;;;;;;13.65;77.73;100908.19;5035028;28;20065;-83
2021/09/03 04:11:15;;;;;;;51.08;21.73;;;;;;;13.65;77.48;100891.41;5044553;28;20056;-83
2021/09/03 04:13:43;;;;;;;46.33;20.95;;;;;;;13.66;77.48;100901.47;5044752;28;20066;-83
2021/09/03 04:16:12;;;;;;;41.10;20.30;;;;;;;13.69;77.21;100904.44;5044393;28;20395;-83
2021/09/03 04:18:40;;;;;;;47.58;20.17;;;;;;;13.71;77.25;100884.50;5044529;28;20064;-83
2021/09/03 04:21:07;;;;;;;40.47;18.92;;;;;;;13.70;77.26;100885.69;5030923;28;20069;-83
2021/09/03 04:23:35;;;;;;;31.95;17.20;;;;;;;13.72;77.39;100887.00;5033883;28;20113;-83
2021/09/03 04:26:03;;;;;;;50.58;20.75;;;;;;;13.76;77.52;100890.78;5024374;28;20046;-83
2021/09/03 04:28:30;;;;;;;52.83;21.83;;;;;;;13.72;77.48;100877.78;5024744;28;20054;-83
2021/09/03 04:30:59;;;;;;;56.30;23.23;;;;;;;13.77;77.89;100884.06;5023440;28;20134;-83
2021/09/03 04:33:28;;;;;;;51.40;21.40;;;;;;;13.75;77.52;100885.50;5024508;28;20050;-83
2021/09/03 04:35:55;;;;;;;52.45;21.88;;;;;;;13.80;77.51;100886.19;5023237;28;20061;-83
2021/09/03 04:38:23;;;;;;;48.33;20.58;;;;;;;13.81;77.83;100887.81;5024473;28;20062;-83
2021/09/03 04:40:50;;;;;;;42.38;20.45;;;;;;;13.86;77.00;100888.81;5025324;28;20091;-83
2021/09/03 04:43:17;;;;;;;40.97;19.13;;;;;;;13.85;76.64;100881.59;5024493;28;20049;-83
2021/09/03 04:45:45;;;;;;;43.47;19.90;;;;;;;13.80;76.57;100888.16;5023048;28;20049;-83
2021/09/03 04:48:13;;;;;;;45.58;21.05;;;;;;;13.76;76.76;100896.38;5023228;28;20050;-82
2021/09/03 04:50:42;;;;;;;53.10;22.58;;;;;;;13.66;76.71;100893.88;5022838;28;20049;-83
2021/09/03 04:53:10;;;;;;;46.83;22.38;;;;;;;13.69;77.52;100890.47;5024299;28;20414;-83
2021/09/03 04:55:37;;;;;;;58.83;22.63;;;;;;;13.71;77.75;100890.97;5042425;28;20056;-83
2021/09/03 04:58:04;;;;;;;52.35;21.63;;;;;;;13.76;77.52;100885.19;5041863;28;20057;-81
2021/09/03 05:00:32;;;;;;;53.03;22.17;;;;;;;13.77;77.37;100895.25;5042891;28;20406;-83
2021/09/03 05:03:01;;;;;;;50.25;22.63;;;;;;;13.77;77.72;100889.66;5042428;28;20072;-84
2021/09/03 05:05:28;;;;;;;39.97;19.48;;;;;;;13.77;77.57;100884.06;5037150;28;20046;-83
2021/09/03 05:07:57;;;;;;;43.05;20.98;;;;;;;13.81;77.80;100879.41;5020272;28;20057;-83
2021/09/03 05:10:24;;;;;;;40.13;20.83;;;;;;;13.79;77.07;100878.91;5041775;28;20419;-83
2021/09/03 05:12:51;;;;;;;47.88;20.60;;;;;;;13.89;77.33;100876.97;5042989;28;20060;-83
2021/09/03 05:15:20;;;;;;;35.05;20.23;;;;;;;13.94;77.26;100880.47;5040438;28;20050;-83
2021/09/03 05:17:51;;;;;;;31.35;18.70;;;;;;;14.02;76.88;100885.22;5022516;28;20054;-82
2021/09/03 05:20:19;;;;;;;32.80;18.08;;;;;;;14.08;76.47;100883.09;5022564;28;20065;-82
2021/09/03 05:22:47;;;;;;;36.00;16.70;;;;;;;14.14;75.99;100889.38;5022952;28;20053;-82
2021/09/03 05:25:15;;;;;;;29.80;16.77;;;;;;;14.17;75.68;100881.16;5022284;28;20050;-83
2021/09/03 05:27:43;;;;;;;29.87;16.20;;;;;;;14.23;75.55;100880.97;5020950;28;20042;-83
2021/09/03 05:30:13;;;;;;;22.88;14.98;;;;;;;14.25;75.27;100885.09;5021621;28;20057;-83
2021/09/03 05:32:41;;;;;;;23.80;14.38;;;;;;;14.31;75.11;100882.94;5010174;28;20047;-83
2021/09/03 05:35:09;;;;;;;19.23;14.38;;;;;;;14.32;74.73;100884.59;5002494;28;20055;-83
2021/09/03 05:37:40;;;;;;;17.77;13.80;;;;;;;14.40;74.17;100883.75;5002562;28;20050;-83
2021/09/03 05:40:09;;;;;;;15.35;13.50;;;;;;;14.44;74.07;100883.94;5022467;28;20054;-83
2021/09/03 05:42:38;;;;;;;21.13;14.23;;;;;;;14.39;74.45;100879.31;5021074;28;20384;-83
2021/09/03 05:45:06;;;;;;;19.37;14.20;;;;;;;14.54;73.79;100884.41;5016167;28;20066;-84
2021/09/03 05:47:34;;;;;;;20.70;14.00;;;;;;;14.65;73.60;100884.09;5020491;28;20037;-83
2021/09/03 05:50:03;;;;;;;20.40;14.05;;;;;;;14.71;73.33;100883.59;5021399;28;20053;-83
2021/09/03 05:52:30;;;;;;;25.08;13.82;;;;;;;14.77;73.12;100887.88;5025615;28;20057;-81
2021/09/03 05:54:58;;;;;;;19.33;13.75;;;;;;;14.94;72.54;100891.81;5019788;28;20054;-79
2021/09/03 05:57:25;;;;;;;24.13;13.48;;;;;;;15.06;72.40;100877.91;5019921;28;20399;-83
2021/09/03 05:59:54;;;;;;;21.30;13.50;;;;;;;15.23;71.57;100877.03;5022031;28;20068;-84
2021/09/03 06:02:21;;;;;;;17.48;13.13;;;;;;;15.30;71.27;100882.94;5022481;28;20077;-82
2021/09/03 06:04:49;;;;;;;19.50;13.57;;;;;;;15.41;70.77;100884.22;5022500;28;20054;-82
2021/09/03 06:07:16;;;;;;;17.58;13.88;;;;;;;15.50;69.86;100892.59;5022710;28;20061;-82
2021/09/03 06:09:43;;;;;;;15.60;12.80;;;;;;;15.60;69.38;100886.59;5022372;28;20360;-83
2021/09/03 06:12:11;;;;;;;15.07;11.90;;;;;;;15.72;68.65;100877.47;5022551;28;20482;-82
2021/09/03 06:14:38;;;;;;;13.77;11.43;;;;;;;15.86;68.19;100890.47;5023414;28;20061;-84
2021/09/03 06:17:07;;;;;;;13.07;11.48;;;;;;;15.92;67.34;100886.28;5014213;28;20054;-83
2021/09/03 06:19:34;;;;;;;14.25;11.30;;;;;;;16.01;67.06;100885.06;5002727;28;20051;-83
2021/09/03 06:22:02;;;;;;;13.55;11.65;;;;;;;16.02;66.33;100885.88;5005684;28;20053;-83
2021/09/03 06:24:29;;;;;;;13.55;11.50;;;;;;;16.07;65.96;100885.69;5022543;28;20050;-84
2021/09/03 06:26:57;;;;;;;14.63;11.65;;;;;;;16.00;66.35;100886.22;5022353;28;20057;-83
2021/09/03 06:29:41;;;;;;;15.82;12.43;;;;;;;16.00;66.82;100882.56;5026307;28;20046;-83
2021/09/03 06:32:11;;;;;;;14.52;12.18;;;;;;;16.07;67.30;100882.88;5032435;28;20402;-82
2021/09/03 06:34:41;;;;;;;16.17;10.85;;;;;;;16.13;67.26;100881.50;5020573;28;20061;-82
2021/09/03 06:37:08;;;;;;;;;;;;;;;16.12;67.44;100884.66;5022226;28;20053;-83
2021/09/03 06:39:36;;;;;;;15.13;11.82;;;;;;;16.14;67.33;100883.13;5023390;28;19932;-83
2021/09/03 06:42:04;;;;;;;15.57;11.80;;;;;;;16.17;67.42;100888.09;5022381;28;20046;-82
2021/09/03 06:44:32;;;;;;;15.00;12.40;;;;;;;16.14;67.36;100883.13;5027619;28;20054;-82
2021/09/03 06:46:59;;;;;;;17.08;12.82;;;;;;;16.14;67.85;100877.50;5006706;28;20065;-84
2021/09/03 06:49:28;;;;;;;14.43;12.10;;;;;;;16.21;67.44;100876.97;5002245;28;20054;-83
2021/09/03 06:51:56;;;;;;;14.68;11.70;;;;;;;16.22;67.16;100882.25;5020418;28;20065;-80
2021/09/03 06:54:24;;;;;;;14.05;12.40;;;;;;;16.30;67.06;100874.09;5021392;28;20057;-82
2021/09/03 06:56:51;;;;;;;14.40;12.60;;;;;;;16.30;67.24;100865.69;5019945;28;20046;-79
2021/09/03 06:59:19;;;;;;;12.93;11.38;;;;;;;16.35;67.22;100868.25;5011009;28;20586;-81
2021/09/03 07:01:46;;;;;;;12.52;11.20;;;;;;;16.37;67.77;100863.13;5015282;28;20053;-81
2021/09/03 07:04:13;;;;;;;12.55;11.30;;;;;;;16.42;67.68;100872.19;5003753;28;20061;-78
2021/09/03 07:06:42;;;;;;;12.15;10.82;;;;;;;16.51;67.70;100874.91;5000446;28;20061;-79
2021/09/03 07:09:09;;;;;;;12.43;11.10;;;;;;;16.58;68.05;100858.28;5006558;28;20054;-81
2021/09/03 07:11:37;;;;;;;12.52;11.25;;;;;;;16.64;68.05;100864.53;4999876;28;20058;-81
2021/09/03 07:14:05;;;;;;;13.07;11.27;;;;;;;16.80;67.50;100864.69;5001328;28;20062;-80
2021/09/03 07:16:33;;;;;;;12.77;10.50;;;;;;;16.92;67.32;100869.56;5009055;28;20056;-81
2021/09/03 07:19:02;;;;;;;11.85;10.45;;;;;;;17.19;66.99;100873.72;5017948;28;20050;-81
2021/09/03 07:21:29;;;;;;;;;;;;;;;17.97;65.16;100857.75;5002768;28;20050;-81
2021/09/03 07:23:59;;;;;;;10.60;9.35;;;;;;;19.04;61.40;100855.22;5015589;28;19928;-80
2021/09/03 07:26:26;;;;;;;10.27;9.20;;;;;;;20.17;58.29;100857.56;5017554;28;20387;-81
2021/09/03 07:28:54;;;;;;;10.10;9.00;;;;;;;21.29;55.13;100860.56;5008086;28;20058;-81
2021/09/03 07:31:22;;;;;;;9.30;8.27;;;;;;;22.39;52.27;100851.34;5010622;28;20058;-82
2021/09/03 07:33:49;;;;;;;8.50;7.65;;;;;;;23.50;49.32;100841.94;5022187;28;20049;-82
2021/09/03 07:36:17;;;;;;;9.98;8.13;;;;;;;24.59;46.25;100843.41;5011024;28;20054;-81
2021/09/03 07:38:44;;;;;;;10.45;7.97;;;;;;;25.79;43.05;100840.31;5019095;28;20438;-80
2021/09/03 07:41:14;;;;;;;8.88;7.78;;;;;;;26.76;41.13;100837.13;5011257;28;20065;-81
2021/09/03 07:43:41;;;;;;;8.10;7.30;;;;;;;27.84;38.96;100834.22;5017327;28;20053;-79
2021/09/03 07:46:09;;;;;;;8.40;7.65;;;;;;;28.56;37.16;100834.25;5017876;28;20045;-80
2021/09/03 07:48:36;;;;;;;9.13;7.75;;;;;;;29.27;35.92;100835.28;5016197;28;20349;-80
2021/09/03 07:51:04;;;;;;;8.35;7.47;;;;;;;30.09;34.27;100835.88;5013409;28;20458;-81
2021/09/03 07:53:31;;;;;;;8.40;7.55;;;;;;;30.85;33.20;100840.84;5007625;28;20065;-80
2021/09/03 07:55:59;;;;;;;11.68;8.18;;;;;;;31.33;32.34;100832.72;5016490;28;20058;-80
2021/09/03 07:58:31;;;;;;;9.10;8.18;;;;;;;31.64;31.53;100829.50;5005197;28;20058;-80
2021/09/03 08:01:00;;;;;;;8.30;7.15;;;;;;;32.11;31.00;100829.88;5019807;28;20057;-80
2021/09/03 08:03:27;;;;;;;9.27;7.05;;;;;;;32.61;29.77;100827.59;5008364;28;20050;-79
2021/09/03 08:05:55;;;;;;;8.20;7.20;;;;;;;33.44;28.38;100830.72;5007680;28;20050;-80
2021/09/03 08:08:25;;;;;;;8.85;7.45;;;;;;;33.78;28.25;100832.06;5016113;28;20057;-82
2021/09/03 08:10:52;;;;;;;9.43;7.22;;;;;;;34.12;28.00;100834.09;5012303;28;20065;-80
2021/09/03 08:13:19;;;;;;;8.63;7.05;;;;;;;34.89;26.99;100839.47;5009073;28;20054;-80
2021/09/03 08:15:49;;;;;;;8.00;7.20;;;;;;;35.05;27.03;100836.31;5015956;28;20050;-81
2021/09/03 08:18:16;;;;;;;8.15;6.55;;;;;;;35.43;26.46;100829.38;5008584;28;20092;-80
2021/09/03 08:20:45;;;;;;;7.47;6.43;;;;;;;35.62;25.77;100832.31;5009891;28;20118;-81
2021/09/03 08:23:13;;;;;;;7.60;6.80;;;;;;;35.96;25.60;100826.22;5007722;28;20046;-80
2021/09/03 08:25:41;;;;;;;7.43;6.72;;;;;;;36.68;24.81;100814.22;5021057;28;20054;-80
2021/09/03 08:28:08;;;;;;;8.27;7.13;;;;;;;37.65;23.86;100826.03;5021208;28;20050;-81
2021/09/03 08:30:35;;;;;;;7.40;6.60;;;;;;;38.45;22.92;100815.50;5014031;28;20058;-83
2021/09/03 08:33:04;;;;;;;7.03;6.32;;;;;;;39.26;21.63;100810.50;5013109;28;20472;-82
2021/09/03 08:35:32;;;;;;;9.15;6.35;;;;;;;39.81;20.41;100814.69;5013909;28;20068;-84
2021/09/03 08:37:59;;;;;;;7.90;6.28;;;;;;;39.72;21.42;100819.34;5013594;28;20510;-85
2021/09/03 08:40:27;;;;;;;6.43;5.82;;;;;;;40.37;20.13;100812.44;5021804;28;20069;-84
2021/09/03 08:42:54;;;;;;;6.90;6.03;;;;;;;41.12;20.18;100809.63;5020264;28;20061;-84
2021/09/03 08:45:21;;;;;;;7.97;6.53;;;;;;;41.50;18.58;100810.41;5001124;28;20054;-78
2021/09/03 08:47:48;;;;;;;7.07;6.25;;;;;;;42.20;18.16;100811.75;5001160;28;20069;-79
2021/09/03 08:50:18;;;;;;;9.93;6.47;;;;;;;42.47;17.96;100804.34;5015038;28;20050;-83
2021/09/03 08:52:47;;;;;;;7.88;5.63;;;;;;;42.83;17.58;100816.31;5012852;28;20058;-83
2021/09/03 08:55:17;;;;;;;7.38;6.18;;;;;;;43.58;16.93;100809.81;5021450;28;20060;-82
2021/09/03 08:57:45;;;;;;;6.95;5.72;;;;;;;43.52;16.94;100818.63;5023167;28;20058;-82
2021/09/03 09:00:21;;;;;;;6.55;5.90;;;;;;;44.18;16.42;100815.13;5012213;28;20062;-82
2021/09/03 09:03:04;;;;;;;7.67;6.47;;;;;;;44.36;16.44;100817.41;5013080;28;20554;-83
2021/09/03 09:05:53;;;;;;;10.27;5.97;;;;;;;44.71;15.55;100818.78;5003770;28;20465;-80
2021/09/03 09:08:24;;;;;;;6.65;6.03;;;;;;;44.61;15.55;100819.69;5014536;28;20050;-82
2021/09/03 09:10:54;;;;;;;7.60;6.03;;;;;;;44.96;15.54;100813.75;5017915;28;20062;-82
2021/09/03 09:13:24;;;;;;;6.68;6.07;;;;;;;45.52;14.88;100812.34;5021335;28;20050;-81
2021/09/03 09:15:59;;;;;;;8.20;6.32;;;;;;;46.11;14.81;100803.03;5001819;28;20058;-80
2021/09/03 09:18:35;;;;;;;6.82;6.13;;;;;;;46.11;14.50;100794.19;5019940;28;20042;-82
2021/09/03 09:21:26;;;;;;;6.38;5.65;;;;;;;46.73;13.98;100791.06;5014572;28;20062;-82
2021/09/03 09:23:56;;;;;;;6.78;5.80;;;;;;;46.34;14.26;100789.53;5009260;28;20045;-82
2021/09/03 09:26:26;;;;;;;6.20;5.60;;;;;;;47.03;13.95;100798.03;5012133;28;20057;-80
2021/09/03 09:28:55;;;;;;;8.05;6.20;;;;;;;46.34;14.28;100804.25;5008515;28;20057;-80
2021/09/03 09:31:35;;;;;;;7.28;5.80;;;;;;;47.50;13.39;100792.25;5008681;28;20061;-80
2021/09/03 09:34:14;;;;;;;7.80;5.60;;;;;;;48.15;12.82;100786.03;5008205;28;20510;-80
2021/09/03 09:36:43;;;;;;;6.28;5.53;;;;;;;48.34;12.36;100786.66;5000572;28;20061;-82
2021/09/03 09:39:11;;;;;;;6.40;5.53;;;;;;;47.95;12.55;100785.44;5014879;28;20061;-82
2021/09/03 09:41:39;;;;;;;6.13;5.53;;;;;;;48.50;12.21;100778.72;5017890;28;20053;-79
2021/09/03 09:44:06;;;;;;;;;;;;;;;48.34;12.61;100780.75;5010716;28;20053;-80
2021/09/03 09:46:33;;;;;;;;;;;;;;;48.76;12.33;100774.84;5010622;28;19926;-81
2021/09/03 09:49:12;;;;;;;6.38;5.45;;;;;;;48.77;12.29;100781.56;5009011;28;19928;-81
2021/09/03 09:51:43;;;;;;;5.93;5.30;;;;;;;49.14;10.79;100779.47;5017992;28;20065;-80
2021/09/03 09:54:14;;;;;;;6.28;5.57;;;;;;;48.93;11.36;100779.50;5007444;28;20046;-81
2021/09/03 09:56:45;;;;;;;5.45;4.95;;;;;;;47.85;12.43;100772.47;5001547;28;20058;-80
2021/09/03 09:59:13;;;;;;;5.55;5.07;;;;;;;48.84;12.15;100768.19;5013500;28;20062;-81
2021/09/03 10:01:42;;;;;;;6.25;5.47;;;;;;;49.00;11.47;100766.97;5006256;28;20054;-81
2021/09/03 10:04:11;;;;;;;5.85;5.35;;;;;;;48.91;11.62;100770.41;4998945;28;20499;-82
2021/09/03 10:06:41;;;;;;;5.75;5.25;;;;;;;49.05;11.21;100765.22;5015971;28;20510;-80
2021/09/03 10:09:11;;;;;;;6.43;5.65;;;;;;;49.36;11.26;100764.03;5015131;28;20058;-81
2021/09/03 10:11:47;;;;;;;5.50;5.00;;;;;;;49.40;11.29;100771.78;5010186;28;20054;-83
2021/09/03 10:14:16;;;;;;;5.97;5.32;;;;;;;49.55;11.13;100766.69;5010631;28;20065;-82
2021/09/03 10:16:45;;;;;;;5.70;5.20;;;;;;;49.47;11.65;100759.94;5001581;28;20054;-83
2021/09/03 10:19:16;;;;;;;6.32;5.60;;;;;;;49.71;10.84;100757.91;5006397;28;20467;-83
2021/09/03 10:21:43;;;;;;;7.90;5.30;;;;;;;49.16;10.65;100758.97;5008709;28;20058;-82
2021/09/03 10:24:22;;;;;;;6.25;5.35;;;;;;;49.10;11.25;100755.38;5015814;28;20053;-82
2021/09/03 10:26:52;;;;;;;5.68;5.18;;;;;;;49.60;11.19;100749.34;5010903;28;20666;-82
2021/09/03 10:29:28;;;;;;;5.78;5.20;;;;;;;49.74;10.94;100751.59;5010870;28;20475;-81
2021/09/03 10:32:23;;;;;;;5.70;5.00;;;;;;;50.49;10.63;100741.91;5011036;28;20058;-82
2021/09/03 10:34:59;;;;;;;12.45;7.90;;;;;;;50.27;10.81;100744.22;5015805;28;20487;-82
2021/09/03 10:37:32;;;;;;;7.60;5.43;;;;;;;50.66;10.80;100739.13;5002032;28;20058;-82
2021/09/03 10:40:10;;;;;;;5.50;5.00;;;;;;;50.64;11.07;100735.97;5017815;28;20054;-83
2021/09/03 10:42:48;;;;;;;5.82;5.32;;;;;;;50.99;10.09;100733.34;5018370;28;20054;-83
2021/09/03 10:45:18;;;;;;;6.30;5.70;;;;;;;50.65;9.94;100736.75;5007546;28;20057;-83
2021/09/03 10:47:48;;;;;;;5.82;5.20;;;;;;;50.76;10.39;100721.53;5008272;28;20058;-83
2021/09/03 10:50:20;;;;;;;6.10;5.50;;;;;;;51.09;9.79;100724.63;5018776;28;20050;-83
2021/09/03 10:53:21;;;;;;;6.47;5.88;;;;;;;50.53;10.12;100715.63;5010744;28;20049;-84
2021/09/03 10:55:57;;;;;;;6.75;6.05;;;;;;;50.63;10.55;100718.75;5014166;28;20054;-83
2021/09/03 10:58:39;;;;;;;8.38;5.75;;;;;;;50.40;9.90;100718.75;5006893;28;20046;-83
2021/09/03 11:01:29;;;;;;;8.05;5.95;;;;;;;48.44;11.22;100715.22;5012769;28;20069;-83
2021/09/03 11:03:57;;;;;;;6.03;5.53;;;;;;;49.70;10.06;100718.63;5012866;28;20061;-83
2021/09/03 11:06:39;;;;;;;6.78;6.13;;;;;;;49.68;10.42;100714.63;5007786;28;20054;-82
2021/09/03 11:09:24;;;;;;;5.63;5.13;;;;;;;49.20;10.14;100714.22;5012037;28;20046;-83
2021/09/03 11:11:55;;;;;;;6.35;5.57;;;;;;;49.88;10.65;100710.78;5012175;28;20057;-84
2021/09/03 11:14:26;;;;;;;6.38;5.70;;;;;;;50.38;9.88;100710.44;5012077;28;20053;-85
2021/09/03 11:16:55;;;;;;;5.88;4.90;;;;;;;50.37;10.04;100703.72;5012251;28;20050;-84
2021/09/03 11:19:27;;;;;;;7.03;5.28;;;;;;;50.26;9.81;100709.28;5012331;28;20124;-81
2021/09/03 11:21:57;;;;;;;7.00;6.32;;;;;;;50.36;9.84;100696.22;5011884;28;20047;-81
2021/09/03 11:24:28;;;;;;;6.55;5.95;;;;;;;49.45;10.23;100703.50;5024017;28;20060;-81
2021/09/03 11:27:02;;;;;;;6.28;5.38;;;;;;;49.21;10.98;100695.09;5010767;28;20061;-82